createdAt,value
2018-06-13T00:02:45.595Z,97.30
2018-06-13T00:05:19.810Z,97.30
2018-06-13T00:07:54.092Z,97.40
2018-06-13T00:15:35.703Z,97.70
2018-06-13T00:18:09.946Z,97.60
2018-06-13T00:21:00.127Z,97.70
2018-06-13T00:23:44.204Z,97.60
2018-06-13T00:26:19.397Z,97.80
2018-06-13T00:28:53.525Z,97.90
2018-06-13T00:31:27.714Z,98.10
2018-06-13T00:34:01.964Z,97.80
2018-06-13T00:36:36.171Z,97.90
2018-06-13T00:39:11.295Z,98.00
2018-06-13T00:44:19.167Z,98.10
2018-06-13T00:46:54.372Z,98.20
2018-06-13T00:49:28.533Z,98.30
2018-06-13T00:52:02.671Z,98.20
2018-06-13T00:54:46.646Z,98.30
2018-06-13T00:57:20.837Z,98.20
2018-06-13T00:59:54.982Z,98.30
2018-06-13T01:02:29.193Z,98.20
2018-06-13T01:05:03.385Z,98.40
2018-06-13T01:07:37.599Z,98.30
2018-06-13T01:10:11.733Z,98.50
2018-06-13T01:12:45.901Z,98.50
2018-06-13T01:15:20.055Z,98.70
2018-06-13T01:17:54.248Z,98.90
2018-06-13T01:20:29.458Z,99.00
2018-06-13T01:23:03.647Z,99.10
2018-06-13T01:25:38.890Z,99.40
2018-06-13T01:28:13.099Z,99.60
2018-06-13T01:30:47.251Z,99.80
2018-06-13T01:33:21.441Z,99.90
2018-06-13T01:35:55.603Z,99.90
2018-06-13T01:38:31.028Z,99.90
2018-06-13T01:41:05.251Z,99.90
2018-06-13T01:43:40.466Z,99.90
2018-06-13T01:46:14.636Z,99.90
2018-06-13T01:48:48.841Z,99.90
2018-06-13T01:51:23.938Z,99.90
2018-06-13T01:53:58.140Z,99.90
2018-06-13T01:56:32.310Z,99.90
2018-06-13T01:59:06.491Z,99.90
2018-06-13T02:01:40.599Z,99.90
2018-06-13T02:04:14.785Z,99.90
2018-06-13T02:09:22.672Z,99.90
2018-06-13T02:11:56.840Z,99.90
2018-06-13T02:14:31.054Z,99.90
2018-06-13T02:17:05.214Z,99.90
2018-06-13T02:19:39.386Z,99.90
2018-06-13T02:22:13.563Z,99.90
2018-06-13T02:27:21.367Z,99.90
2018-06-13T02:35:05.004Z,99.90
2018-06-13T02:37:39.185Z,99.90
2018-06-13T02:40:14.477Z,99.90
2018-06-13T02:42:48.627Z,99.90
2018-06-13T02:45:22.846Z,99.90
2018-06-13T02:47:57.006Z,99.90
2018-06-13T02:50:31.208Z,99.90
2018-06-13T02:53:05.589Z,99.90
2018-06-13T02:55:39.806Z,99.90
2018-06-13T02:58:13.971Z,99.90
2018-06-13T03:00:48.158Z,99.90
2018-06-13T03:03:30.598Z,99.90
2018-06-13T03:06:13.233Z,99.90
2018-06-13T03:08:47.471Z,99.90
2018-06-13T03:11:21.637Z,99.90
2018-06-13T03:13:55.799Z,99.90
2018-06-13T03:16:30.012Z,99.90
2018-06-13T03:21:38.034Z,99.90
2018-06-13T03:24:12.183Z,99.90
2018-06-13T03:26:46.402Z,99.90
2018-06-13T03:29:22.307Z,99.90
2018-06-13T03:31:56.479Z,99.90
2018-06-13T03:34:30.623Z,99.90
2018-06-13T03:37:04.845Z,99.90
2018-06-13T03:39:39.987Z,99.90
2018-06-13T03:42:14.150Z,99.90
2018-06-13T03:44:48.334Z,99.90
2018-06-13T03:47:22.517Z,99.90
2018-06-13T03:49:56.723Z,99.90
2018-06-13T03:52:31.925Z,99.90
2018-06-13T03:55:07.162Z,99.90
2018-06-13T03:57:41.315Z,99.90
2018-06-13T04:00:15.499Z,99.90
2018-06-13T04:05:23.343Z,99.90
2018-06-13T04:07:57.553Z,99.90
2018-06-13T04:10:31.739Z,99.90
2018-06-13T04:18:13.298Z,99.90
2018-06-13T04:20:47.503Z,99.90
2018-06-13T04:23:21.622Z,99.90
2018-06-13T04:25:55.859Z,99.90
2018-06-13T04:28:30.002Z,99.90
2018-06-13T04:33:38.611Z,99.90
2018-06-13T04:36:12.804Z,99.90
2018-06-13T04:38:46.984Z,99.90
2018-06-13T04:41:21.107Z,99.90
2018-06-13T04:43:55.281Z,99.90
2018-06-13T04:46:29.427Z,99.90
2018-06-13T04:49:04.615Z,99.90
2018-06-13T04:51:38.753Z,99.90
2018-06-13T04:56:46.620Z,99.90
2018-06-13T04:59:20.834Z,99.90
2018-06-13T05:01:54.991Z,99.90
2018-06-13T05:09:37.612Z,99.90
2018-06-13T05:12:11.755Z,99.90
2018-06-13T05:14:46.934Z,99.90
2018-06-13T05:17:22.207Z,99.90
2018-06-13T05:19:56.403Z,99.90
2018-06-13T05:22:30.575Z,99.90
2018-06-13T05:25:04.755Z,99.90
2018-06-13T05:30:12.575Z,99.90
2018-06-13T05:32:47.785Z,99.90
2018-06-13T05:35:21.929Z,99.90
2018-06-13T05:37:56.108Z,99.90
2018-06-13T05:40:30.296Z,99.90
2018-06-13T05:43:04.575Z,99.90
2018-06-13T05:48:13.673Z,99.90
2018-06-13T05:50:48.847Z,99.90
2018-06-13T05:53:23.078Z,99.90
2018-06-13T05:55:57.249Z,99.90
2018-06-13T05:58:31.446Z,99.90
2018-06-13T06:01:05.626Z,99.90
2018-06-13T06:03:40.427Z,99.90
2018-06-13T06:08:48.301Z,99.90
2018-06-13T06:11:22.465Z,99.90
2018-06-13T06:13:56.624Z,99.90
2018-06-13T06:16:30.796Z,99.90
2018-06-13T06:19:05.921Z,99.90
2018-06-13T06:21:41.109Z,99.90
2018-06-13T06:24:16.299Z,99.90
2018-06-13T06:26:50.508Z,99.90
2018-06-13T06:31:58.411Z,99.90
2018-06-13T06:37:06.297Z,99.90
2018-06-13T06:39:40.504Z,99.90
2018-06-13T06:42:15.718Z,99.90
2018-06-13T06:44:50.056Z,99.90
2018-06-13T06:47:24.226Z,99.90
2018-06-13T06:49:59.419Z,99.90
2018-06-13T06:52:33.581Z,99.90
2018-06-13T06:55:07.779Z,99.90
2018-06-13T06:57:41.923Z,99.90
2018-06-13T07:00:16.078Z,99.90
2018-06-13T07:02:50.212Z,99.90
2018-06-13T07:07:58.071Z,99.90
2018-06-13T07:10:32.226Z,99.90
2018-06-13T07:15:40.118Z,99.90
2018-06-13T07:18:14.299Z,99.90
2018-06-13T07:20:48.504Z,99.90
2018-06-13T07:23:22.669Z,99.90
2018-06-13T07:25:56.879Z,99.90
2018-06-13T07:28:31.024Z,99.90
2018-06-13T07:33:39.015Z,99.90
2018-06-13T07:36:13.409Z,99.90
2018-06-13T07:38:47.542Z,99.90
2018-06-13T07:41:21.799Z,99.90
2018-06-13T07:43:55.973Z,99.90
2018-06-13T07:46:31.844Z,99.90
2018-06-13T07:51:39.663Z,99.90
2018-06-13T07:56:47.471Z,99.90
2018-06-13T08:01:56.326Z,99.90
2018-06-13T08:04:30.523Z,99.90
2018-06-13T08:09:39.419Z,99.90
2018-06-13T08:12:14.628Z,99.90
2018-06-13T08:14:48.816Z,99.90
2018-06-13T08:19:56.690Z,99.90
2018-06-13T08:22:31.847Z,99.90
2018-06-13T08:25:07.460Z,99.90
2018-06-13T08:27:48.516Z,99.90
2018-06-13T08:30:22.697Z,99.90
2018-06-13T08:35:30.818Z,99.90
2018-06-13T08:40:38.757Z,99.90
2018-06-13T08:43:12.983Z,99.90
2018-06-13T08:45:50.607Z,99.90
2018-06-13T08:48:24.855Z,99.90
2018-06-13T08:53:32.749Z,99.90
2018-06-13T08:56:22.113Z,99.90
2018-06-13T08:58:56.325Z,99.90
2018-06-13T09:01:30.602Z,99.90
2018-06-13T09:04:04.905Z,99.90
2018-06-13T09:06:41.380Z,99.90
2018-06-13T09:09:15.728Z,99.90
2018-06-13T09:11:49.870Z,99.90
2018-06-13T09:14:24.044Z,99.90
2018-06-13T09:16:58.234Z,99.90
2018-06-13T09:19:32.408Z,99.90
2018-06-13T09:22:06.614Z,99.90
2018-06-13T09:24:40.854Z,99.90
2018-06-13T09:29:49.980Z,99.90
2018-06-13T09:32:25.208Z,99.90
2018-06-13T09:34:59.472Z,99.90
2018-06-13T09:37:33.839Z,99.90
2018-06-13T09:40:11.384Z,99.90
2018-06-13T09:42:52.314Z,99.90
2018-06-13T09:50:42.826Z,99.90
2018-06-13T09:53:20.405Z,99.90
2018-06-13T09:56:00.671Z,99.90
2018-06-13T09:58:42.523Z,99.60
2018-06-13T10:01:24.680Z,92.90
2018-06-13T10:06:42.971Z,93.10
2018-06-13T10:09:21.085Z,91.60
2018-06-13T10:12:01.302Z,91.00
2018-06-13T10:14:50.907Z,91.60
2018-06-13T10:17:42.606Z,89.10
2018-06-13T10:20:22.592Z,90.00
2018-06-13T10:22:58.849Z,90.30
2018-06-13T10:25:38.226Z,90.70
2018-06-13T10:31:18.241Z,90.40
2018-06-13T10:33:58.531Z,90.10
2018-06-13T10:36:39.925Z,88.10
2018-06-13T10:39:38.100Z,87.70
2018-06-13T10:42:28.147Z,85.40
2018-06-13T11:01:46.162Z,72.80
2018-06-13T11:07:56.096Z,70.30
2018-06-13T11:17:01.951Z,68.60
2018-06-13T11:22:50.018Z,65.80
2018-06-13T11:25:47.059Z,66.50
2018-06-13T11:29:01.888Z,66.10
2018-06-13T11:32:34.057Z,67.30
2018-06-13T11:38:30.861Z,64.30
2018-06-13T11:41:44.473Z,63.70
2018-06-13T12:00:34.100Z,58.70
2018-06-13T12:10:10.557Z,55.60
2018-06-13T12:13:16.297Z,55.50
2018-06-13T12:22:32.377Z,56.90
2018-06-13T12:42:03.422Z,58.40
2018-06-13T12:48:12.877Z,60.00
2018-06-13T13:06:36.239Z,58.80
2018-06-13T13:09:30.265Z,57.90
2018-06-13T13:15:41.048Z,58.50
2018-06-13T13:18:50.391Z,58.10
2018-06-13T13:33:52.973Z,58.00
2018-06-13T13:36:27.945Z,58.60
2018-06-13T13:39:03.845Z,58.20
2018-06-13T13:41:41.529Z,58.30
2018-06-13T13:44:16.967Z,58.30
2018-06-13T13:46:52.263Z,58.70
2018-06-13T13:49:28.770Z,57.60
2018-06-13T13:52:04.592Z,58.10
2018-06-13T13:54:43.259Z,58.10
2018-06-13T13:57:19.499Z,57.80
2018-06-13T13:59:54.603Z,58.60
2018-06-13T14:05:05.094Z,55.70
2018-06-13T14:07:40.073Z,56.40
2018-06-13T14:10:15.459Z,56.50
2018-06-13T14:12:51.607Z,57.70
2018-06-13T14:15:27.101Z,58.60
2018-06-13T14:18:02.284Z,57.50
2018-06-13T14:23:12.054Z,56.90
2018-06-13T14:25:48.099Z,56.50
2018-06-13T14:28:35.981Z,56.60
2018-06-13T14:31:15.531Z,57.80
2018-06-13T14:33:55.632Z,57.80
2018-06-13T14:36:30.716Z,57.80
2018-06-13T14:39:11.644Z,57.20
2018-06-13T14:41:47.881Z,56.60
2018-06-13T14:44:26.412Z,56.70
2018-06-13T14:47:01.551Z,58.40
2018-06-13T14:52:45.744Z,57.80
2018-06-13T14:55:23.442Z,58.10
2018-06-13T15:01:08.359Z,59.20
2018-06-13T15:03:43.182Z,58.90
2018-06-13T15:06:17.954Z,59.10
2018-06-13T15:08:52.738Z,59.00
2018-06-13T15:11:27.467Z,59.80
2018-06-13T15:14:02.179Z,60.20
2018-06-13T15:16:36.963Z,59.90
2018-06-13T15:19:11.683Z,60.20
2018-06-13T15:21:46.454Z,59.60
2018-06-13T15:24:21.178Z,61.10
2018-06-13T15:26:55.925Z,60.60
2018-06-13T15:29:30.732Z,59.80
2018-06-13T15:32:06.567Z,59.90
2018-06-13T15:34:41.310Z,59.50
2018-06-13T15:37:16.057Z,61.00
2018-06-13T15:39:50.802Z,61.10
2018-06-13T15:42:25.745Z,61.70
2018-06-13T15:45:00.455Z,61.00
2018-06-13T15:50:09.474Z,59.90
2018-06-13T15:52:44.196Z,59.40
2018-06-13T15:55:19.007Z,58.40
2018-06-13T15:57:53.722Z,58.10
2018-06-13T16:00:28.760Z,58.20
2018-06-13T16:03:03.546Z,57.80
2018-06-13T16:08:13.866Z,58.90
2018-06-13T16:10:48.678Z,58.90
2018-06-13T16:13:24.561Z,58.70
2018-06-13T16:15:59.274Z,58.40
2018-06-13T16:18:34.182Z,57.80
2018-06-13T16:21:08.905Z,58.70
2018-06-13T16:23:45.626Z,59.20
2018-06-13T16:26:20.511Z,59.10
2018-06-13T16:28:55.231Z,59.50
2018-06-13T16:31:29.957Z,59.50
2018-06-13T16:34:04.722Z,58.70
2018-06-13T16:36:39.395Z,58.30
2018-06-13T16:39:25.000Z,59.00
2018-06-13T21:06:51.846Z,59.60
2018-06-13T21:12:00.513Z,97.20
2018-06-13T21:14:34.701Z,97.20
2018-06-13T21:17:08.843Z,97.90
2018-06-13T21:19:43.040Z,98.40
2018-06-13T21:22:18.290Z,98.90
2018-06-13T21:24:52.437Z,99.10
2018-06-13T21:27:26.555Z,99.40
2018-06-13T21:30:00.763Z,99.60
2018-06-13T21:32:34.926Z,99.70
2018-06-13T21:35:09.115Z,99.30
2018-06-13T21:40:17.025Z,98.70
2018-06-13T21:42:51.425Z,98.20
2018-06-13T21:45:35.462Z,97.90
2018-06-13T21:48:09.669Z,97.40
2018-06-13T21:50:44.867Z,97.00
2018-06-13T21:53:19.008Z,96.70
2018-06-13T21:55:53.172Z,96.30
2018-06-13T22:01:01.119Z,95.80
2018-06-13T22:03:35.348Z,95.70
2018-06-13T22:06:09.519Z,95.30
2018-06-13T22:08:43.675Z,94.80
2018-06-13T22:11:18.875Z,94.60
2018-06-13T22:13:53.012Z,94.20
2018-06-13T22:16:27.184Z,94.10
2018-06-13T22:21:36.044Z,93.70
2018-06-13T22:24:10.587Z,93.30
2018-06-13T22:26:47.109Z,93.20
2018-06-13T22:32:02.846Z,93.10
2018-06-13T22:34:37.011Z,93.10
2018-06-13T22:37:29.037Z,92.50
2018-06-13T22:40:04.272Z,92.20
2018-06-13T22:42:38.439Z,91.80
2018-06-13T22:45:27.169Z,91.40
2018-06-13T22:48:07.264Z,91.50
2018-06-13T22:50:48.528Z,91.50
2018-06-13T22:53:29.703Z,90.90
2018-06-13T22:56:03.874Z,90.20
2018-06-13T22:58:40.648Z,90.40
2018-06-13T23:01:20.076Z,90.00
2018-06-13T23:03:57.842Z,88.60
2018-06-13T23:06:32.261Z,87.70
2018-06-13T23:09:07.949Z,87.40
2018-06-13T23:14:19.624Z,85.20
2018-06-13T23:16:54.878Z,83.10
2018-06-13T23:19:30.103Z,82.10
2018-06-13T23:22:04.297Z,81.40
2018-06-13T23:24:38.475Z,81.30
2018-06-13T23:27:12.732Z,80.60
2018-06-13T23:29:46.939Z,80.40
2018-06-13T23:32:21.143Z,79.20
2018-06-13T23:34:56.374Z,78.90
2018-06-13T23:37:30.688Z,78.90
2018-06-13T23:40:04.868Z,78.70
2018-06-13T23:45:12.712Z,79.00
2018-06-13T23:47:53.037Z,79.20
2018-06-13T23:50:27.445Z,78.40
2018-06-13T23:53:02.660Z,78.30
2018-06-13T23:55:36.845Z,78.40
2018-06-13T23:58:11.036Z,78.30
